Collins, Georgia
Current Conditions -  °F | °C
As of 7:55 PM on Monday 24 Nov 2014 (Local Time) from KCWV Reporting Station
Light Rain Light Rain  
Wind Chill: 64°   Ceiling: 10000
Heat Index: 64°   Visibility: 7mi
Dew Point: 64°   Wind: 0mph
Humidity: 100%   Direction: NA
Pressure: 29.96"   Gusts: NA
Location:  32.18°N, 82.11°W
Report Text: KCWV 250055Z AUTO 00000KT 7SM -RA SCT080 OVC100 18/18 A2996 RMK AO2
Loading
Personal Weather Stations






























Interactive Weather Map New forecast layout! Learn more

10-Day Weather Forecast

Advertisements
Track Severe Weather on mobile